Main page
METAR-TAF:

METAR-TAF

Airports :

Branch County Memorial Airport

Coldwater, Michigan, United States

latitude: 41-56N, longitude: 085-03-09W, elevation: 958 ft

Current weather observation

The report was made 21 minutes ago, at 17:35 UTC
Wind 9 mph from the North/Northeast
Temperature 43°F
Humidity 70%
Pressure 30.21 in. Hg
Visibility: 10 miles
Overcast at a height of 2700 ft

METAR: KOEB 241735Z AUTO 03008KT 10SM OVC027 06/01 A3021 RMK AO2 T00630005

Time: 13:56 (17:56 UTC)


TAF: missing

Weather observations and forecasts of more than 4000 airports (METAR and TAF reports).

The available stations are represented by yellow and red dots on the map.

Hover mouse over dot to see the name of the station.

Then click to see weather observations and forecasts.

To change the map : click on the green buttons with a black cross to zoom in, on the green button with a dash to zoom out, or on the green arrows for adjacent maps.


METAR-TAF: